Granite Falls, WA

7:32 PM PDT on August 29, 2014 (GMT -0700)
Storm Lake Heights | Change Station
CLOSE
Current Station
Personal Weather Station
Location: Monroe, WA
Elevation: 732 ft
Nearby Weather Stations

Elev 732 ft 47.93 °N, 121.95 °W | Updated 24 seconds ago

Overcast
Overcast
65.4 °F
Feels Like 65.4 °F
N
0.0
Wind Variable Wind from ESE
Gusts 0.0 mph

Today
High -- | Low -- °F
--% Chance of Precip.
Yesterday
High -- | Low -- °F
Precip. -- in
6:20 AM 7:53 PM
Waxing Crescent, 18% visible
Pressure 29.95 in
Visibility 10.0 miles
Clouds Few 3900 ft
Overcast 4600 ft
Dew Point 56 °F
Humidity 72%
Rainfall 0.04 in
Snow Depth 0 in
UV 0 out of 12
Pollen .80 out of 12
PM2.5 Good
Flu Activity Not available.
METAR KAWO 300215Z AUTO 00000KT 10SM FEW039 OVC046 20/12 A2995 RMK AO1

More Conditions Fewer Conditions

Pressure 29.95 in
Visibility 10.0 miles
Clouds Few 3900 ft
Overcast 4600 ft
Dew Point 56 °F
Humidity 72%
Rainfall 0.04 in
Snow Depth 0 in
UV 0 out of 12
Pollen .80 out of 12
PM2.5 Good
Flu Activity Not available.
METAR KAWO 300215Z AUTO 00000KT 10SM FEW039 OVC046 20/12 A2995 RMK AO1

More Conditions Fewer Conditions

10-Day Weather Forecast

Almanac

Astronomy

Aug. 29, 2014 Rise Set
Actual Time 6:20 AM PDT 7:53 PM PDT
Civil Twilight 5:48 AM PDT 8:25 PM PDT
Nautical Twilight 5:08 AM PDT 9:05 PM PDT
Astronomical Twilight 4:25 AM PDT 9:48 PM PDT
Moon 10:36 AM PDT (8/29) 9:32 PM PDT (8/29)
Length of Visible Light 14h 37m
Length of Day
13h 32m
Tomorrow will be 3m 21s shorter.
Waxing Crescent, 18% of the Moon is Illuminated
Today
Waxing Crescent
Sep 2
First Quarter
Sep 8
Full
Sep 15
Last Quarter
Sep 24
New

Today's Extremes

State Highs State Lows

Community

WunderPhotos

Upload Photos

1,748,412 photos uploaded!

Nearby

Air Quality

  Air Quality AQ Index Pollutant
Yesterday Good
OZONE
Yesterday Good
PM2.5
Current Good
PM2.5
Friday Good
OZONE
Friday Good
PM2.5
Saturday Good
OZONE
Saturday Good
PM2.5
Sunday Good
OZONE
Sunday Good
PM2.5
Monday Good
OZONE
Monday Good
PM2.5
Tuesday Good
OZONE
Tuesday Good
PM2.5
Wednesday Good
OZONE
Wednesday Good
PM2.5

Snow Depth

Station Depth Elevation
Alpine Meadows 0 in 3500 ft
Skookum Creek 0 in 3920 ft
Stevens Pass 0 in 4070 ft
Fish Lake 0 in 3371 ft
Olallie Meadows 2 in 3700 ft

Earthquake Activity

City Distance Mag. Time & Date
No recent earthquake activity has been reported nearby.
Minimum magnitude displayed is 2.5.

Coastal Water Temperatures

Place Temperature
Port Townsend, WA 53.1 °F
Seattle, WA 55.9 °F
Friday Harbor, WA 53.1 °F
Tacoma, WA 55.0 °F

Nearby Weather Stations